Wednesday, November 22, 2017, 11:38 AM EST
Back to Local

KDKK, Chautauqua County/dunkirk

Location: Dunkirk, NY, United States Lat: 42.5
Local Time: 11:38 AM EST (16:38 GMT) Lon: -79.283
Time Zone: US/Eastern Elev: 692 ft

Show me the last for .
Show Decoded

2017-11-22 10:53 METAR KDKK 221553Z AUTO 30014G22KT 10SM FEW023 BKN035 OVC043 01/M04 A3017 RMK
                 AO2 SLP221 T00111044 =
2017-11-22 10:48 METAR KDKK 221548Z AUTO 31012G20KT 10SM FEW023 BKN034 OVC043 01/M04 A3017 RMK
                 AO2 =
2017-11-22 09:53 METAR KDKK 221453Z AUTO 32013G21KT 10SM BKN024 OVC036 01/M03 A3015 RMK AO2
                 SLP215 60000 T00111033 51023 =
2017-11-22 08:53 METAR KDKK 221353Z AUTO 31012KT 10SM FEW024 OVC032 01/M03 A3013 RMK AO2 SLP209
                 T00111028 =
2017-11-22 07:53 METAR KDKK 221253Z AUTO 31011KT 10SM SCT025 OVC035 02/M03 A3011 RMK AO2
                 SNB1158E21 SLP201 P0000 T00171028 =
2017-11-22 06:53 METAR KDKK 221153Z AUTO 30014KT 10SM SCT029 OVC037 02/M03 A3008 RMK AO2 SLP191
                 60005 70011 I6000 T00171033 10039 20017 53029 =
2017-11-22 05:53 METAR KDKK 221053Z AUTO 33009KT 10SM OVC027 02/M02 A3005 RMK AO2 UPB04E13 SLP180
                 P0000 T00171017 =
2017-11-22 04:53 METAR KDKK 220953Z AUTO 33011G18KT 10SM OVC022 03/M01 A3002 RMK AO2
                 RAB11E22UPB12E13B20E21 SLP170 P0000 T00281006 =
2017-11-22 04:16 METAR KDKK 220916Z AUTO 33009KT 10SM -RA OVC018 03/01 A3000 RMK AO2
                 RAB11UPB12E13 P0000 T00280006 =
2017-11-22 03:53 METAR KDKK 220853Z AUTO 33008KT 10SM BKN012 BKN018 OVC030 02/01 A2999 RMK AO2
                 UPE32 SLP160 P0000 60005 I1000 I3000 T00220011 51015 =
2017-11-22 03:51 METAR KDKK 220851Z AUTO 33008KT 10SM FEW009 BKN014 OVC047 02/01 A2999 RMK AO2
                 UPE32 P0000 I1000 =
2017-11-22 03:29 METAR KDKK 220829Z AUTO 31008KT 10SM UP OVC011 02/01 A2999 RMK AO2 P0000 I1000
                 T00220011 =
2017-11-22 03:22 METAR KDKK 220822Z AUTO 32009KT 9SM UP BKN009 OVC016 02/01 A2999 RMK AO2 CIG
                 008V013 P0000 T00220011 =
2017-11-22 03:07 METAR KDKK 220807Z AUTO 33010KT 9SM UP BKN010 OVC014 02/01 A2999 RMK AO2 CIG
                 007V012 P0000 T00220011 =
2017-11-22 02:53 METAR KDKK 220753Z AUTO 33010KT 9SM UP BKN008 OVC012 02/01 A2998 RMK AO2
                 RAE51UPB51 CIG 006V010 SLP156 P0002 I1000 T00220011 =
2017-11-22 02:34 METAR KDKK 220734Z AUTO 33014G21KT 8SM -RA BKN009 OVC013 02/02 A2997 RMK AO2 CIG
                 006V011 P0002 T00220017 =
2017-11-22 01:53 METAR KDKK 220653Z AUTO 28006KT 6SM -RA BR OVC012 03/02 A2995 RMK AO2 SLP145
                 P0003 T00330022 =
2017-11-22 00:53 METAR KDKK 220553Z AUTO 30005KT 7SM -RA OVC014 04/02 A2994 RMK AO2 SLP143 P0004
                 60006 T00390022 10106 20039 51020 =
2017-11-22 00:40 METAR KDKK 220540Z AUTO 30007KT 8SM -RA BKN014 OVC019 04/02 A2994 RMK AO2 P0003
                 T00390022 =
2017-11-22 00:17 METAR KDKK 220517Z AUTO 30006KT 7SM -RA OVC015 04/03 A2994 RMK AO2 P0002
                 T00440028 =
2017-11-21 23:53 METAR KDKK 220453Z AUTO 31009KT 10SM -RA OVC013 04/03 A2993 RMK AO2 SLP138 P0001
                 T00440033 401280039 =
2017-11-21 23:35 METAR KDKK 220435Z AUTO 31009KT 10SM -RA OVC011 05/04 A2992 RMK AO2 P0001
                 T00500039 =
2017-11-21 23:10 METAR KDKK 220410Z AUTO 31011G17KT 8SM -RA BKN008 OVC015 06/04 A2990 RMK AO2 CIG
                 006V010 P0001 T00560044 =
2017-11-21 22:55 METAR KDKK 220355Z AUTO 28011G17KT 250V320 6SM -RA BR FEW009 BKN019 OVC024 06/04
                 A2990 RMK AO2 P0000 T00610044 =
2017-11-21 22:53 METAR KDKK 220353Z AUTO 26011G17KT 6SM -RA BR BKN013 OVC021 07/04 A2990 RMK AO2
                 SLP128 P0001 T00670044 =
2017-11-21 21:53 METAR KDKK 220253Z AUTO 28012G19KT 9SM -RA BKN020 OVC034 07/04 A2988 RMK AO2
                 RAB21 SLP123 P0000 60000 T00720044 53012 =
2017-11-21 21:34 METAR KDKK 220234Z AUTO 28012G23KT 10SM -RA SCT018 BKN026 OVC042 08/04 A2988 RMK
                 AO2 RAB21 P0000 T00780044 =
2017-11-21 20:53 METAR KDKK 220153Z AUTO 26005KT 10SM OVC055 09/04 A2985 RMK AO2 SLP112 T00940039
                 =
2017-11-21 19:53 METAR KDKK 220053Z AUTO 24009G16KT 10SM OVC060 10/04 A2986 RMK AO2 SLP114
                 T01000039 =
2017-11-21 18:53 METAR KDKK 212353Z AUTO 24008KT 10SM SCT060 11/M02 A2985 RMK AO2 SLP110 60000
                 T01061022 10128 20089 51018 =
2017-11-21 17:53 METAR KDKK 212253Z AUTO 22012KT 10SM CLR 10/M02 A2982 RMK AO2 SLP102 T01001017 =
2017-11-21 16:53 METAR KDKK 212153Z AUTO 22009G17KT 10SM CLR 11/M02 A2982 RMK AO2 PK WND
                 22026/2055 SLP101 T01061022 =
2017-11-21 15:53 METAR KDKK 212053Z AUTO 23013G23KT 10SM CLR 12/M02 A2979 RMK AO2 PK WND
                 20029/2016 SLP092 60000 T01171022 53010 =
2017-11-21 14:53 METAR KDKK 211953Z AUTO 23019G26KT 10SM CLR 13/M02 A2977 RMK AO2 PK WND
                 20031/1855 RAB43E52 SLP085 P0000 T01281017 =
2017-11-21 13:53 METAR KDKK 211853Z AUTO 21021G28KT 10SM CLR 13/M02 A2976 RMK AO2 PK WND
                 21031/1756 RAB13E24 SLP079 P0000 T01281022 =
2017-11-21 12:53 METAR KDKK 211753Z AUTO 21018G30KT 10SM CLR 12/M02 A2976 RMK AO2 PK WND
                 22031/1656 SLP081 T01221022 10122 20044 58008 =
2017-11-21 11:53 METAR KDKK 211653Z AUTO 20017G25KT 10SM CLR 12/M03 A2976 RMK AO2 PK WND
                 22031/1612 SLP081 T01171033 =

Support USWX by starting your Amazon purchase here.